Time;durP1;ratioP1;P1;durP2;ratioP2;P2;SDS_P1;SDS_P2;PMS_P1;PMS_P2;Temp;Humidity;BMP_temperature;BMP_pressure;BME280_temperature;BME280_humidity;BME280_pressure;Samples;Min_cycle;Max_cycle;Signal;HPM_P1;HPM_P2
2022/05/18 00:00:29;;;;;;;11.45;6.25;;;20.20;69.50;;;;;;5128689;27;20065;-64
2022/05/18 00:02:57;;;;;;;9.93;6.30;;;20.20;69.00;;;;;;5119108;28;20038;-64
2022/05/18 00:05:23;;;;;;;11.23;6.45;;;20.20;69.00;;;;;;5134777;28;20041;-64
2022/05/18 00:07:49;;;;;;;10.75;6.32;;;20.20;69.10;;;;;;5127698;28;20084;-65
2022/05/18 00:10:15;;;;;;;10.32;6.43;;;20.10;69.20;;;;;;5130356;27;20028;-64
2022/05/18 00:12:47;;;;;;;13.80;6.95;;;20.10;69.20;;;;;;5134902;27;20051;-65
2022/05/18 00:15:14;;;;;;;;;;;20.10;69.30;;;;;;5137962;27;20444;-65
2022/05/18 00:17:40;;;;;;;11.20;5.72;;;20.00;69.20;;;;;;5132972;27;19919;-65
2022/05/18 00:20:07;;;;;;;11.38;6.75;;;20.00;69.40;;;;;;5131899;27;20098;-65
2022/05/18 00:22:32;;;;;;;16.35;7.00;;;20.00;69.50;;;;;;5119875;27;20047;-65
2022/05/18 00:25:01;;;;;;;10.60;6.22;;;20.00;69.60;;;;;;5132936;27;20324;-65
2022/05/18 00:27:26;;;;;;;11.45;6.30;;;19.90;69.70;;;;;;5128809;27;20439;-65
2022/05/18 00:29:52;;;;;;;9.65;6.30;;;19.90;69.70;;;;;;5124687;27;20024;-65
2022/05/18 00:32:17;;;;;;;12.27;6.75;;;19.90;69.80;;;;;;5137461;27;20023;-65
2022/05/18 00:34:43;;;;;;;11.90;6.43;;;19.90;69.90;;;;;;5137164;27;20023;-65
2022/05/18 00:37:08;;;;;;;11.18;6.82;;;19.80;70.00;;;;;;5137427;27;20035;-65
2022/05/18 00:39:34;;;;;;;12.93;6.82;;;19.80;70.00;;;;;;5134913;27;20066;-65
2022/05/18 00:42:00;;;;;;;11.00;6.53;;;19.80;70.10;;;;;;5121209;27;20351;-65
2022/05/18 00:44:25;;;;;;;12.60;6.97;;;19.70;70.10;;;;;;5124948;27;20056;-64
2022/05/18 00:46:51;;;;;;;10.82;6.88;;;19.70;70.20;;;;;;5138869;27;20027;-65
2022/05/18 00:49:17;;;;;;;11.70;6.93;;;19.70;70.20;;;;;;5134808;27;20463;-65
2022/05/18 00:51:53;;;;;;;12.85;7.18;;;19.70;70.30;;;;;;5121438;27;20059;-64
2022/05/18 00:54:31;;;;;;;10.55;6.53;;;19.70;70.40;;;;;;5127946;27;20062;-65
2022/05/18 00:57:01;;;;;;;11.45;5.97;;;19.60;70.40;;;;;;5118238;27;20096;-65
2022/05/18 00:59:35;;;;;;;16.63;7.05;;;19.60;70.60;;;;;;5135921;27;20386;-65
2022/05/18 01:02:02;;;;;;;11.98;7.40;;;19.60;70.70;;;;;;5121256;27;20113;-65
2022/05/18 01:04:28;;;;;;;12.55;7.05;;;19.50;70.70;;;;;;5122652;27;20027;-65
2022/05/18 01:07:00;;;;;;;10.93;6.45;;;19.50;70.80;;;;;;5117005;27;20149;-65
2022/05/18 01:09:41;;;;;;;13.70;7.35;;;19.50;70.80;;;;;;5136089;27;20031;-64
2022/05/18 01:12:09;;;;;;;15.38;7.35;;;19.50;71.00;;;;;;5120018;27;20035;-65
2022/05/18 01:15:02;;;;;;;11.85;7.25;;;19.40;70.90;;;;;;5121851;27;20057;-65
2022/05/18 01:17:33;;;;;;;10.15;7.28;;;19.50;71.10;;;;;;5130435;27;20034;-64
2022/05/18 01:20:02;;;;;;;11.27;7.15;;;19.40;71.10;;;;;;5124344;27;20404;-65
2022/05/18 01:23:01;;;;;;;11.90;7.00;;;19.40;71.20;;;;;;5135034;27;20093;-65
2022/05/18 01:25:41;;;;;;;12.32;7.15;;;19.40;71.20;;;;;;5135533;27;20066;-64
2022/05/18 01:28:07;;;;;;;9.90;6.95;;;19.40;71.40;;;;;;5131399;27;20451;-65
2022/05/18 01:30:35;;;;;;;13.32;7.68;;;19.30;71.30;;;;;;5135203;27;20019;-64
2022/05/18 01:33:05;;;;;;;11.52;7.25;;;19.40;71.50;;;;;;5135356;27;20031;-65
2022/05/18 01:35:33;;;;;;;12.63;7.15;;;19.40;71.50;;;;;;5135254;27;20023;-64
2022/05/18 01:37:59;;;;;;;12.30;7.90;;;19.40;71.60;;;;;;5133095;27;20142;-64
2022/05/18 01:41:16;;;;;;;12.52;8.05;;;19.40;71.70;;;;;;5135913;27;20043;-64
2022/05/18 01:43:51;;;;;;;12.27;8.27;;;19.40;71.70;;;;;;5110418;27;20051;-64
2022/05/18 01:46:18;;;;;;;12.65;7.40;;;19.30;71.70;;;;;;5121688;27;20106;-64
2022/05/18 01:48:48;;;;;;;13.43;7.70;;;19.30;71.80;;;;;;5124988;27;20031;-64
2022/05/18 01:51:35;;;;;;;12.15;7.82;;;19.30;71.80;;;;;;5132200;27;20047;-65
2022/05/18 01:54:01;;;;;;;13.00;8.05;;;19.30;72.00;;;;;;5135942;27;20019;-64
2022/05/18 01:56:27;;;;;;;12.95;7.90;;;19.30;72.00;;;;;;5126908;27;20459;-64
2022/05/18 01:58:53;;;;;;;14.23;8.20;;;19.30;72.10;;;;;;5116395;28;20337;-64
2022/05/18 02:01:20;;;;;;;11.32;7.97;;;19.30;72.10;;;;;;5132795;27;20106;-65
2022/05/18 02:03:47;;;;;;;11.90;7.82;;;19.30;72.10;;;;;;5135016;27;20114;-64
2022/05/18 02:06:13;;;;;;;12.30;8.15;;;19.30;72.20;;;;;;5126031;27;20107;-64
2022/05/18 02:08:40;;;;;;;12.13;7.60;;;19.30;72.20;;;;;;5134408;27;20064;-64
2022/05/18 02:11:10;;;;;;;12.48;8.02;;;19.30;72.20;;;;;;5135176;27;20355;-64
2022/05/18 02:13:36;;;;;;;14.48;8.20;;;19.30;72.30;;;;;;5131243;27;20122;-65
2022/05/18 02:16:02;;;;;;;11.73;8.38;;;19.30;72.30;;;;;;5126406;27;20107;-64
2022/05/18 02:18:28;;;;;;;12.35;8.50;;;19.30;72.30;;;;;;5132245;27;20032;-64
2022/05/18 02:20:54;;;;;;;16.35;8.90;;;19.30;72.40;;;;;;5133687;27;20034;-64
2022/05/18 02:23:20;;;;;;;11.57;8.13;;;19.30;72.40;;;;;;5134369;27;20070;-65
2022/05/18 02:25:45;;;;;;;13.57;8.57;;;19.30;72.50;;;;;;5132569;27;20118;-65
2022/05/18 02:28:11;;;;;;;12.50;8.52;;;19.30;72.50;;;;;;5115953;27;20027;-64
2022/05/18 02:30:37;;;;;;;11.50;8.05;;;19.20;72.50;;;;;;5130109;27;20058;-65
2022/05/18 02:33:03;;;;;;;14.93;8.77;;;19.20;72.60;;;;;;5114813;27;20047;-65
2022/05/18 02:35:29;;;;;;;13.00;8.55;;;19.20;72.60;;;;;;5119229;27;20023;-65
2022/05/18 02:37:55;;;;;;;13.73;9.23;;;19.10;72.70;;;;;;5125896;27;20051;-65
2022/05/18 02:40:21;;;;;;;12.85;8.80;;;19.10;72.70;;;;;;5133420;27;20030;-65
2022/05/18 02:42:47;;;;;;;12.50;8.65;;;19.10;72.80;;;;;;5117517;27;20023;-65
2022/05/18 02:45:13;;;;;;;12.20;7.75;;;19.10;72.80;;;;;;5115597;27;20034;-65
2022/05/18 02:47:39;;;;;;;15.65;9.05;;;19.10;72.90;;;;;;5127479;27;20119;-64
2022/05/18 02:50:06;;;;;;;12.75;8.77;;;19.10;73.00;;;;;;5135895;27;20114;-64
2022/05/18 02:52:31;;;;;;;13.35;8.93;;;19.00;73.00;;;;;;5117633;27;20035;-64
2022/05/18 02:57:42;;;;;;;13.75;9.48;;;19.00;73.00;;;;;;5125067;27;20043;-65
2022/05/18 03:00:09;;;;;;;14.27;10.05;;;19.00;73.10;;;;;;5136311;27;20046;-65
2022/05/18 03:02:35;;;;;;;12.93;9.13;;;19.00;73.10;;;;;;5131715;27;20033;-65
2022/05/18 03:05:01;;;;;;;15.30;9.32;;;18.90;73.10;;;;;;5134085;27;20049;-65
2022/05/18 03:07:26;;;;;;;11.73;8.20;;;18.90;73.10;;;;;;5129036;27;20035;-65
2022/05/18 03:09:52;;;;;;;12.77;8.80;;;18.90;73.10;;;;;;5135213;27;20042;-65
2022/05/18 03:12:17;;;;;;;14.85;9.30;;;18.90;73.20;;;;;;5130077;27;20023;-65
2022/05/18 03:14:43;;;;;;;13.00;9.13;;;18.90;73.20;;;;;;5116777;27;20130;-65
2022/05/18 03:17:09;;;;;;;12.55;9.27;;;18.90;73.30;;;;;;5125738;27;20356;-65
2022/05/18 03:19:34;;;;;;;13.00;9.00;;;18.90;73.30;;;;;;5136491;27;20094;-66
2022/05/18 03:24:44;;;;;;;13.40;9.00;;;18.80;73.30;;;;;;5126838;27;20034;-65
2022/05/18 03:27:10;;;;;;;13.88;8.43;;;18.80;73.30;;;;;;5109034;27;20023;-65
2022/05/18 03:29:37;;;;;;;15.57;9.35;;;18.80;73.40;;;;;;5124049;27;20036;-65
2022/05/18 03:32:03;;;;;;;14.95;9.93;;;18.80;73.40;;;;;;5120746;27;21236;-65
2022/05/18 03:34:28;;;;;;;12.98;9.10;;;18.80;73.40;;;;;;5096665;27;20028;-65
2022/05/18 03:36:54;;;;;;;17.40;9.07;;;18.80;73.50;;;;;;5118388;27;20039;-65
2022/05/18 03:39:19;;;;;;;11.57;8.10;;;18.80;73.50;;;;;;5135044;27;20038;-65
2022/05/18 03:41:45;;;;;;;12.15;8.60;;;18.80;73.50;;;;;;5127923;27;20027;-65
2022/05/18 03:44:11;;;;;;;13.82;8.68;;;18.80;73.50;;;;;;5133186;27;20024;-65
2022/05/18 03:46:37;;;;;;;12.93;8.93;;;18.70;73.50;;;;;;5114969;27;20440;-65
2022/05/18 03:49:04;;;;;;;11.73;8.40;;;18.70;73.60;;;;;;5114949;28;20126;-65
2022/05/18 03:51:30;;;;;;;12.45;9.02;;;18.70;73.50;;;;;;5124978;27;20046;-65
2022/05/18 03:53:56;;;;;;;14.30;8.70;;;18.70;73.60;;;;;;5132278;27;20110;-65
2022/05/18 03:56:21;;;;;;;14.30;9.00;;;18.70;74.30;;;;;;5129662;27;20078;-65
2022/05/18 03:58:47;;;;;;;13.60;8.50;;;18.70;73.60;;;;;;5117668;28;20092;-64
2022/05/18 04:01:13;;;;;;;12.05;8.00;;;18.70;73.70;;;;;;5121229;28;20038;-65
2022/05/18 04:03:44;;;;;;;11.68;8.13;;;18.70;73.70;;;;;;5131807;27;20019;-65
2022/05/18 04:06:10;;;;;;;12.48;8.77;;;18.70;73.70;;;;;;5134440;28;20027;-65
2022/05/18 04:08:37;;;;;;;13.48;8.77;;;18.70;73.70;;;;;;5124269;27;20062;-66
2022/05/18 04:11:04;;;;;;;14.65;8.70;;;18.70;73.80;;;;;;5133039;27;20085;-65
2022/05/18 04:13:29;;;;;;;11.98;8.60;;;18.70;73.80;;;;;;5120066;28;20055;-64
2022/05/18 04:15:55;;;;;;;13.15;9.63;;;18.70;73.80;;;;;;5113381;28;20432;-64
2022/05/18 04:18:22;;;;;;;14.48;9.43;;;18.70;73.80;;;;;;5114121;28;20028;-64
2022/05/18 04:20:50;;;;;;;11.73;8.07;;;18.70;73.80;;;;;;5117219;28;20032;-64
2022/05/18 04:23:16;;;;;;;12.30;8.63;;;18.70;73.80;;;;;;5121982;27;20028;-65
2022/05/18 04:25:42;;;;;;;12.68;9.07;;;18.70;73.80;;;;;;5114990;28;20031;-65
2022/05/18 04:28:09;;;;;;;11.10;7.68;;;18.80;73.80;;;;;;5118652;28;20027;-65
2022/05/18 04:30:35;;;;;;;12.43;8.10;;;18.80;73.80;;;;;;5120841;27;20026;-65
2022/05/18 04:33:01;;;;;;;12.45;8.32;;;18.80;73.80;;;;;;5128013;28;20351;-65
2022/05/18 04:35:29;;;;;;;10.57;7.32;;;18.80;73.80;;;;;;5131937;27;20027;-66
2022/05/18 04:37:55;;;;;;;13.98;7.38;;;18.80;73.80;;;;;;5118856;27;20044;-65
2022/05/18 04:40:21;;;;;;;11.88;7.72;;;18.90;73.80;;;;;;5118018;28;20039;-65
2022/05/18 04:42:47;;;;;;;12.23;7.28;;;18.90;74.40;;;;;;5124859;27;20031;-65
2022/05/18 04:45:17;;;;;;;12.07;7.88;;;18.90;73.70;;;;;;5113564;28;20468;-65
2022/05/18 04:47:43;;;;;;;11.45;7.65;;;19.00;73.70;;;;;;5123508;27;20031;-64
2022/05/18 04:50:10;;;;;;;10.00;6.72;;;19.00;73.60;;;;;;5129956;28;20027;-64
2022/05/18 04:52:36;;;;;;;12.20;7.20;;;19.00;73.50;;;;;;5121978;28;20031;-64
2022/05/18 04:55:03;;;;;;;12.35;7.13;;;19.10;73.50;;;;;;5114405;28;20099;-64
2022/05/18 04:57:29;;;;;;;10.68;6.43;;;19.20;73.50;;;;;;5117679;27;20042;-65
2022/05/18 04:59:54;;;;;;;10.93;6.68;;;19.20;73.40;;;;;;5115974;27;20031;-65
2022/05/18 05:02:20;;;;;;;10.65;6.63;;;19.30;73.20;;;;;;5115907;28;20028;-65
2022/05/18 05:04:46;;;;;;;10.63;6.50;;;19.40;73.20;;;;;;5120206;27;20372;-65
2022/05/18 05:07:12;;;;;;;10.95;6.63;;;19.40;72.90;;;;;;5125118;27;20024;-65
2022/05/18 05:09:38;;;;;;;10.25;6.75;;;19.50;72.80;;;;;;5126360;27;20039;-66
2022/05/18 05:12:05;;;;;;;10.65;6.95;;;19.60;72.70;;;;;;5129338;27;20030;-65
2022/05/18 05:14:33;;;;;;;15.02;6.53;;;19.60;72.60;;;;;;5127003;27;20031;-64
2022/05/18 05:17:00;;;;;;;11.18;6.20;;;19.70;72.60;;;;;;5134934;27;20027;-64
2022/05/18 05:19:26;;;;;;;9.38;6.07;;;19.70;72.40;;;;;;5117516;27;20031;-63
2022/05/18 05:21:51;;;;;;;8.45;5.13;;;19.80;72.00;;;;;;5118094;27;20356;-64
2022/05/18 05:24:17;;;;;;;9.23;5.55;;;19.80;71.50;;;;;;5138270;27;20027;-66
2022/05/18 05:26:43;;;;;;;10.07;5.68;;;19.90;71.50;;;;;;5133691;27;20046;-64
2022/05/18 05:29:11;;;;;;;8.98;5.50;;;19.90;71.30;;;;;;5119127;27;20110;-64
2022/05/18 05:31:37;;;;;;;9.70;4.90;;;19.90;71.20;;;;;;5121278;27;20039;-65
2022/05/18 05:34:03;;;;;;;10.93;5.10;;;20.00;71.00;;;;;;5126658;27;20332;-65
2022/05/18 05:36:29;;;;;;;9.07;5.25;;;20.20;70.70;;;;;;5118391;27;20074;-65
2022/05/18 05:38:55;;;;;;;9.27;4.68;;;20.30;71.00;;;;;;5118831;27;20360;-64
2022/05/18 05:41:20;;;;;;;6.95;4.60;;;20.40;70.00;;;;;;5118685;27;20413;-65
2022/05/18 05:43:46;;;;;;;9.52;5.05;;;20.60;69.40;;;;;;5120289;27;20063;-64
2022/05/18 05:46:16;;;;;;;9.18;4.97;;;20.80;69.00;;;;;;5126656;27;20035;-64
2022/05/18 05:48:44;;;;;;;8.27;4.80;;;20.90;68.70;;;;;;5128582;27;20126;-64
2022/05/18 05:51:12;;;;;;;9.02;4.63;;;21.10;68.40;;;;;;5137670;27;20096;-64
2022/05/18 05:53:41;;;;;;;8.75;4.43;;;21.20;68.00;;;;;;5135693;27;20034;-64
2022/05/18 05:56:08;;;;;;;8.05;4.57;;;21.30;67.40;;;;;;5126604;27;20359;-64
2022/05/18 05:58:35;;;;;;;9.73;5.22;;;21.40;67.00;;;;;;5121733;27;20110;-64
2022/05/18 06:01:02;;;;;;;8.35;4.78;;;21.50;66.80;;;;;;5123633;27;20375;-65
2022/05/18 06:03:28;;;;;;;9.15;5.28;;;21.60;66.50;;;;;;5135496;27;20179;-65
2022/05/18 06:05:55;;;;;;;9.95;4.70;;;21.70;66.50;;;;;;5117503;27;20507;-65
2022/05/18 06:08:21;;;;;;;8.82;4.35;;;21.80;66.20;;;;;;5119043;27;20034;-65
2022/05/18 06:10:47;;;;;;;8.70;4.53;;;21.90;65.90;;;;;;5141717;27;20038;-65
2022/05/18 06:13:13;;;;;;;9.13;5.00;;;22.00;65.50;;;;;;5127500;27;20015;-66
2022/05/18 06:15:39;;;;;;;9.02;4.68;;;22.10;65.00;;;;;;5116626;28;20436;-65
2022/05/18 06:18:05;;;;;;;7.78;4.65;;;22.20;64.70;;;;;;5117280;27;20042;-65
2022/05/18 06:20:30;;;;;;;8.63;4.85;;;22.40;64.60;;;;;;5122189;27;20032;-66
2022/05/18 06:23:02;;;;;;;8.65;4.53;;;22.60;64.10;;;;;;5104308;27;20033;-65
2022/05/18 06:25:29;;;;;;;9.60;4.38;;;22.80;63.70;;;;;;5133189;27;20039;-66
2022/05/18 06:27:54;;;;;;;8.85;5.05;;;22.90;63.20;;;;;;5132492;27;20434;-65
2022/05/18 06:30:20;;;;;;;6.97;4.30;;;23.00;62.90;;;;;;5116357;27;20080;-66
2022/05/18 06:32:46;;;;;;;9.20;4.60;;;22.90;62.90;;;;;;5130385;27;20028;-66
2022/05/18 06:35:11;;;;;;;9.55;4.88;;;22.90;63.00;;;;;;5127324;27;20072;-66
2022/05/18 06:37:37;;;;;;;9.05;4.68;;;22.80;63.20;;;;;;5129630;27;20061;-67
2022/05/18 06:40:05;;;;;;;8.45;4.82;;;22.80;63.50;;;;;;5127103;27;20059;-66
2022/05/18 06:42:31;;;;;;;7.75;4.43;;;22.70;63.50;;;;;;5133868;27;20031;-67
2022/05/18 06:44:59;;;;;;;8.65;4.40;;;22.70;63.30;;;;;;5123647;27;20027;-68
2022/05/18 06:47:25;;;;;;;9.52;4.57;;;22.60;63.10;;;;;;5125246;27;20034;-66
2022/05/18 06:49:51;;;;;;;9.13;4.40;;;22.60;63.30;;;;;;5115944;28;20028;-66
2022/05/18 06:52:18;;;;;;;9.27;4.63;;;22.50;63.60;;;;;;5115836;27;20027;-66
2022/05/18 06:54:44;;;;;;;8.80;4.40;;;22.50;63.60;;;;;;5124294;27;20075;-66
2022/05/18 06:57:10;;;;;;;7.10;4.30;;;22.60;63.40;;;;;;5133602;27;20378;-66
2022/05/18 06:59:37;;;;;;;8.00;4.63;;;22.80;63.10;;;;;;5126607;27;20076;-66
2022/05/18 07:02:03;;;;;;;9.07;4.68;;;23.10;62.80;;;;;;5116408;28;20418;-66
2022/05/18 07:04:28;;;;;;;9.52;4.40;;;23.40;62.10;;;;;;5116081;28;20091;-66
2022/05/18 07:06:54;;;;;;;7.72;3.95;;;23.70;61.50;;;;;;5116035;28;20504;-66
2022/05/18 07:09:22;;;;;;;8.48;4.38;;;24.00;60.70;;;;;;5116873;27;20016;-66
2022/05/18 07:11:49;;;;;;;8.30;4.68;;;24.20;60.00;;;;;;5098966;28;20023;-67
2022/05/18 07:14:17;;;;;;;10.95;5.10;;;24.20;59.60;;;;;;5117055;27;20345;-66
2022/05/18 07:16:43;;;;;;;9.20;4.43;;;24.00;59.30;;;;;;5114216;28;20070;-65
2022/05/18 07:19:09;;;;;;;9.77;4.57;;;23.90;59.50;;;;;;5115461;27;20059;-65
2022/05/18 07:21:36;;;;;;;8.60;4.78;;;23.80;59.40;;;;;;5136049;27;20035;-65
2022/05/18 07:24:01;;;;;;;11.45;4.72;;;23.70;59.80;;;;;;5135012;27;20496;-66
2022/05/18 07:26:29;;;;;;;10.88;5.57;;;23.60;59.90;;;;;;5134948;27;20032;-67
2022/05/18 07:28:55;;;;;;;9.02;5.50;;;23.50;60.00;;;;;;5132196;27;20038;-66
2022/05/18 07:31:21;;;;;;;9.65;5.47;;;23.40;60.00;;;;;;5120838;27;20035;-67
2022/05/18 07:33:47;;;;;;;8.60;5.15;;;23.40;60.20;;;;;;5114058;27;20368;-66
2022/05/18 07:36:14;;;;;;;9.60;5.57;;;23.40;60.20;;;;;;5115182;27;20024;-66
2022/05/18 07:38:40;;;;;;;10.07;5.25;;;23.40;60.00;;;;;;5115985;27;20054;-66
2022/05/18 07:41:10;;;;;;;9.27;5.45;;;23.40;60.60;;;;;;5123530;27;20557;-66
2022/05/18 07:43:36;;;;;;;9.32;5.85;;;23.50;59.70;;;;;;5133716;27;20047;-66
2022/05/18 07:46:03;;;;;;;11.43;5.75;;;23.50;59.60;;;;;;5133061;27;20031;-66
2022/05/18 07:48:29;;;;;;;8.30;6.13;;;23.60;59.50;;;;;;5126146;27;20030;-66
2022/05/18 07:50:54;;;;;;;9.52;6.07;;;23.60;59.40;;;;;;5129528;27;20023;-66
2022/05/18 07:53:20;;;;;;;10.10;6.22;;;23.60;59.20;;;;;;5118950;27;20019;-66
2022/05/18 07:55:47;;;;;;;9.95;6.20;;;23.70;59.00;;;;;;5133441;27;20448;-66
2022/05/18 07:58:15;;;;;;;10.13;6.32;;;23.70;59.00;;;;;;5119500;27;20456;-66
2022/05/18 08:00:41;;;;;;;9.35;6.80;;;23.80;58.90;;;;;;5133429;27;20038;-68
2022/05/18 08:03:10;;;;;;;11.95;7.00;;;23.90;58.70;;;;;;5135593;27;20027;-68
2022/05/18 08:05:41;;;;;;;12.20;7.15;;;23.90;58.60;;;;;;5135793;27;20037;-68
2022/05/18 08:08:15;;;;;;;10.52;7.00;;;23.90;58.50;;;;;;5116732;28;20035;-68
2022/05/18 08:16:11;;;;;;;10.93;7.50;;;24.60;57.70;;;;;;5115851;28;20032;-65
2022/05/18 08:18:37;;;;;;;11.57;8.10;;;24.90;57.10;;;;;;5114763;28;20032;-64
2022/05/18 08:21:03;;;;;;;13.52;7.57;;;25.20;56.50;;;;;;5114108;28;20404;-66
2022/05/18 08:23:29;;;;;;;15.23;9.30;;;25.50;56.00;;;;;;5113631;28;20023;-67
2022/05/18 08:25:56;;;;;;;10.27;7.53;;;25.70;55.40;;;;;;5112396;28;20352;-67
2022/05/18 08:28:23;;;;;;;11.38;7.50;;;25.80;55.00;;;;;;5113871;28;20107;-64
2022/05/18 08:30:48;;;;;;;11.50;7.97;;;26.00;54.80;;;;;;5114726;28;20031;-66
2022/05/18 08:33:14;;;;;;;10.57;7.03;;;26.10;54.50;;;;;;5119150;28;20019;-66
2022/05/18 08:35:43;;;;;;;13.88;7.43;;;26.30;54.40;;;;;;5119017;28;20023;-66
2022/05/18 08:38:10;;;;;;;12.43;7.43;;;26.50;54.20;;;;;;5123289;27;20058;-66
2022/05/18 08:40:47;;;;;;;13.55;8.35;;;26.60;53.80;;;;;;5136209;27;20035;-66
2022/05/18 08:43:39;;;;;;;11.63;7.53;;;26.70;53.60;;;;;;5138403;27;20035;-65
2022/05/18 08:46:12;;;;;;;11.07;7.10;;;26.80;53.90;;;;;;5138181;27;20043;-66
2022/05/18 08:49:10;;;;;;;12.98;7.43;;;26.90;53.90;;;;;;5135019;27;20114;-65
2022/05/18 08:52:05;;;;;;;12.85;7.15;;;27.00;53.80;;;;;;5132079;27;20467;-66
2022/05/18 08:54:58;;;;;;;11.77;7.00;;;27.10;53.70;;;;;;5126638;27;20443;-66
2022/05/18 08:57:28;;;;;;;12.10;7.20;;;27.30;53.40;;;;;;5137362;27;20045;-65
2022/05/18 08:59:59;;;;;;;14.10;9.43;;;27.40;53.70;;;;;;5129895;27;20027;-66
2022/05/18 09:02:29;;;;;;;12.07;7.93;;;27.40;52.80;;;;;;5118718;28;20094;-65
2022/05/18 09:05:16;;;;;;;11.90;7.75;;;27.40;52.80;;;;;;5119323;27;20036;-66
2022/05/18 09:08:06;;;;;;;11.32;7.50;;;27.60;52.80;;;;;;5109385;27;20049;-67
2022/05/18 09:10:38;;;;;;;11.32;6.28;;;27.70;52.40;;;;;;5109984;28;20332;-66
2022/05/18 09:13:05;;;;;;;11.52;8.15;;;27.80;52.30;;;;;;5125120;27;20016;-66
2022/05/18 09:15:49;;;;;;;10.70;7.38;;;27.90;52.00;;;;;;5131314;27;20029;-66
2022/05/18 09:18:23;;;;;;;11.98;7.95;;;28.00;52.00;;;;;;5135062;27;20436;-66
2022/05/18 09:20:54;;;;;;;10.57;7.03;;;27.90;51.80;;;;;;5132241;27;20035;-66
2022/05/18 09:23:26;;;;;;;;;;;27.90;51.80;;;;;;5120167;27;20329;-66
2022/05/18 09:26:11;;;;;;;12.40;6.95;;;28.10;52.00;;;;;;5120335;27;19961;-66
2022/05/18 09:29:04;;;;;;;11.90;8.00;;;28.10;51.90;;;;;;5122910;27;20023;-66
2022/05/18 09:31:49;;;;;;;11.68;7.30;;;28.20;51.70;;;;;;5117926;27;20040;-66
2022/05/18 09:34:28;;;;;;;10.25;6.90;;;28.20;51.90;;;;;;5122130;27;20126;-67
2022/05/18 09:37:28;;;;;;;10.23;6.47;;;28.20;51.80;;;;;;5134564;27;20058;-67
2022/05/18 09:40:04;;;;;;;11.07;6.97;;;28.30;51.60;;;;;;5121291;27;20106;-67
2022/05/18 09:42:37;;;;;;;9.27;6.05;;;28.30;51.50;;;;;;5125044;27;20085;-67
2022/05/18 09:45:11;;;;;;;12.50;7.03;;;28.30;51.50;;;;;;5105786;27;20093;-66
2022/05/18 09:47:45;;;;;;;11.13;6.78;;;28.40;51.40;;;;;;5127217;27;20109;-66
2022/05/18 09:50:12;;;;;;;9.93;6.13;;;28.40;51.40;;;;;;5123061;27;20352;-66
2022/05/18 09:52:40;;;;;;;11.20;7.88;;;28.50;51.40;;;;;;5125250;27;20487;-66
2022/05/18 09:55:09;;;;;;;10.48;6.35;;;28.60;51.30;;;;;;5123628;27;20027;-66
2022/05/18 09:58:03;;;;;;;10.45;6.55;;;28.60;51.10;;;;;;5117591;27;20087;-66
2022/05/18 10:00:32;;;;;;;9.15;6.13;;;28.70;50.90;;;;;;5118886;27;20031;-66
2022/05/18 10:08:48;;;;;;;10.25;4.95;;;28.90;50.50;;;;;;5122374;27;20031;-66
2022/05/18 10:11:17;;;;;;;8.77;5.88;;;29.10;50.60;;;;;;5119591;27;20027;-64
2022/05/18 10:13:59;;;;;;;14.23;6.65;;;29.10;50.30;;;;;;5118011;27;20024;-66
2022/05/18 10:16:44;;;;;;;11.07;6.82;;;29.00;50.10;;;;;;5123560;27;20035;-66
2022/05/18 10:19:32;;;;;;;11.25;5.90;;;29.00;50.10;;;;;;5121480;27;20031;-66
2022/05/18 10:22:05;;;;;;;10.05;6.15;;;29.10;50.30;;;;;;5124027;27;20803;-66
2022/05/18 10:24:41;;;;;;;9.82;6.40;;;29.20;50.10;;;;;;5119026;27;20027;-66
2022/05/18 10:27:23;;;;;;;10.75;6.85;;;29.20;50.00;;;;;;5121780;27;20458;-67
2022/05/18 10:30:25;;;;;;;9.68;6.57;;;29.30;50.70;;;;;;5128628;27;20066;-65
2022/05/18 10:33:18;;;;;;;11.98;6.82;;;29.20;49.70;;;;;;5125699;27;20038;-66
2022/05/18 10:35:54;;;;;;;9.23;5.43;;;29.30;49.90;;;;;;5119182;27;20051;-64
2022/05/18 10:38:28;;;;;;;9.95;5.05;;;29.40;50.10;;;;;;5118464;27;20139;-65
2022/05/18 10:41:09;;;;;;;9.30;5.50;;;29.50;50.00;;;;;;5118614;27;20030;-64
2022/05/18 10:43:38;;;;;;;9.30;5.07;;;29.60;49.70;;;;;;5124043;27;20027;-65
2022/05/18 10:46:10;;;;;;;9.43;4.85;;;29.70;49.70;;;;;;5125828;27;20453;-65
2022/05/18 10:48:37;;;;;;;8.05;5.00;;;29.70;49.70;;;;;;5117107;27;20031;-65
2022/05/18 10:51:08;;;;;;;8.02;4.40;;;29.70;49.70;;;;;;5116023;28;20019;-65
2022/05/18 10:53:38;;;;;;;7.18;4.15;;;29.80;49.70;;;;;;5115383;28;20024;-65
2022/05/18 10:56:08;;;;;;;8.80;5.22;;;29.80;49.40;;;;;;5131586;27;20054;-65
2022/05/18 10:58:39;;;;;;;8.90;4.80;;;29.90;49.00;;;;;;5115483;28;20085;-66
2022/05/18 11:01:26;;;;;;;9.00;5.15;;;30.00;49.00;;;;;;5115328;27;20035;-66
2022/05/18 11:04:00;;;;;;;11.25;5.53;;;30.00;48.50;;;;;;5116870;27;20034;-66
2022/05/18 11:06:39;;;;;;;9.27;5.28;;;29.90;49.20;;;;;;5122470;27;20084;-66
2022/05/18 11:09:19;;;;;;;9.13;5.47;;;29.80;48.70;;;;;;5135466;27;20043;-63
2022/05/18 11:11:52;;;;;;;8.85;5.55;;;29.70;48.70;;;;;;5121874;27;20033;-64
2022/05/18 11:14:38;;;;;;;10.60;6.55;;;29.80;48.60;;;;;;5116097;27;20011;-64
2022/05/18 11:17:22;;;;;;;9.20;6.07;;;29.90;48.50;;;;;;5130564;27;20333;-65
2022/05/18 11:20:02;;;;;;;11.82;6.32;;;29.90;48.50;;;;;;5134291;27;20033;-64
2022/05/18 11:22:47;;;;;;;9.25;4.88;;;29.90;48.40;;;;;;5136320;27;20035;-64
2022/05/18 11:25:25;;;;;;;9.75;4.97;;;29.80;48.60;;;;;;5136650;27;20083;-64
2022/05/18 11:27:57;;;;;;;9.32;4.70;;;29.90;48.60;;;;;;5113886;28;20023;-64
2022/05/18 11:30:44;;;;;;;11.18;5.15;;;30.00;48.30;;;;;;5114578;28;20027;-65
2022/05/18 11:33:13;;;;;;;8.10;4.50;;;30.10;48.10;;;;;;5127091;27;20026;-65
2022/05/18 11:35:59;;;;;;;10.45;5.03;;;30.20;48.30;;;;;;5133548;27;20039;-67
2022/05/18 11:38:50;;;;;;;7.18;4.20;;;30.20;48.10;;;;;;5129892;27;20050;-65
2022/05/18 11:41:23;;;;;;;7.47;3.85;;;30.20;48.10;;;;;;5126493;27;20494;-65
2022/05/18 11:44:01;;;;;;;8.68;4.88;;;30.30;48.40;;;;;;5124593;27;20027;-66
2022/05/18 11:46:27;;;;;;;7.88;4.47;;;30.20;48.40;;;;;;5121665;27;20035;-64
2022/05/18 11:49:28;;;;;;;9.32;4.90;;;30.10;48.40;;;;;;5120893;27;20040;-64
2022/05/18 11:52:11;;;;;;;9.35;4.80;;;30.10;48.30;;;;;;5114908;28;20341;-64
2022/05/18 11:55:09;;;;;;;7.95;4.60;;;30.00;48.50;;;;;;5118730;28;20360;-64
2022/05/18 11:57:38;;;;;;;9.00;4.22;;;29.80;48.70;;;;;;5119301;27;20493;-64
2022/05/18 12:00:07;;;;;;;9.93;4.68;;;29.70;49.00;;;;;;5118883;27;20024;-64
2022/05/18 12:03:04;;;;;;;8.23;3.90;;;29.60;49.10;;;;;;5117377;28;20368;-65
2022/05/18 12:05:52;;;;;;;8.30;4.15;;;29.70;49.20;;;;;;5128171;27;20454;-65
2022/05/18 12:08:46;;;;;;;8.73;3.20;;;29.80;49.00;;;;;;5140597;27;20025;-65
2022/05/18 12:11:34;;;;;;;7.28;3.90;;;29.90;49.10;;;;;;5125438;28;20347;-65
2022/05/18 12:14:08;;;;;;;8.88;3.92;;;29.90;48.90;;;;;;5134333;27;20028;-65
2022/05/18 12:16:44;;;;;;;6.72;3.35;;;29.90;48.90;;;;;;5123750;27;20413;-65
2022/05/18 12:19:22;;;;;;;8.68;4.45;;;29.80;48.70;;;;;;5131439;28;20042;-65
2022/05/18 12:21:55;;;;;;;8.68;3.95;;;29.70;48.80;;;;;;5126275;27;20024;-64
2022/05/18 12:24:23;;;;;;;9.30;4.55;;;29.50;49.20;;;;;;5123826;27;20423;-64
2022/05/18 12:26:49;;;;;;;7.35;3.88;;;29.30;49.40;;;;;;5133520;27;20095;-65
2022/05/18 12:29:20;;;;;;;10.40;5.00;;;29.10;49.70;;;;;;5118324;28;20096;-66
2022/05/18 12:31:48;;;;;;;8.43;4.05;;;29.00;49.90;;;;;;5119171;28;20020;-65
2022/05/18 12:34:13;;;;;;;7.60;4.30;;;28.90;49.90;;;;;;5118821;27;20024;-64
2022/05/18 12:36:57;;;;;;;8.18;3.78;;;28.70;50.00;;;;;;5127468;27;20038;-65
2022/05/18 12:39:23;;;;;;;8.45;3.80;;;28.60;50.20;;;;;;5118514;27;20092;-65
2022/05/18 12:41:54;;;;;;;8.63;4.15;;;28.40;50.40;;;;;;5114839;28;20361;-65
2022/05/18 12:44:25;;;;;;;8.35;3.78;;;28.30;50.50;;;;;;5129846;28;20031;-65
2022/05/18 12:46:55;;;;;;;;;;;28.10;50.60;;;;;;5136092;27;20428;-65
2022/05/18 12:49:37;;;;;;;7.18;3.17;;;28.10;50.80;;;;;;5110608;28;19959;-65
2022/05/18 12:52:14;;;;;;;7.70;3.20;;;28.00;50.80;;;;;;5117290;28;20118;-65
2022/05/18 12:54:47;;;;;;;6.85;3.10;;;27.90;50.70;;;;;;5132082;28;20344;-65
2022/05/18 12:57:23;;;;;;;11.90;3.40;;;27.90;50.70;;;;;;5134017;28;20019;-65
2022/05/18 13:00:20;;;;;;;7.50;3.55;;;27.90;50.70;;;;;;5119598;27;20028;-65
2022/05/18 13:02:55;;;;;;;6.88;2.72;;;27.80;50.70;;;;;;5114419;28;20035;-65
2022/05/18 13:05:26;;;;;;;6.53;2.90;;;27.90;50.90;;;;;;5114766;28;20043;-65
2022/05/18 13:08:19;;;;;;;7.03;3.13;;;27.90;50.90;;;;;;5114468;28;20039;-66
2022/05/18 13:11:09;;;;;;;7.80;3.45;;;28.00;51.10;;;;;;5114688;28;20104;-65
2022/05/18 13:14:04;;;;;;;6.47;3.22;;;28.00;51.10;;;;;;5124395;28;20050;-65
2022/05/18 13:16:37;;;;;;;7.25;3.70;;;28.10;51.20;;;;;;5135796;27;20028;-65